Time;durP1;ratioP1;P1;durP2;ratioP2;P2;SDS_P1;SDS_P2;PMS_P1;PMS_P2;Temp;Humidity;BMP_temperature;BMP_pressure;BME280_temperature;BME280_humidity;BME280_pressure;Samples;Min_cycle;Max_cycle;Signal;HPM_P1;HPM_P2
2022/09/14 00:01:27;;;;;;;4.00;1.65;;;12.90;99.90;;;;;;5137430;27;20039;-77
2022/09/14 00:03:58;;;;;;;4.63;1.52;;;12.90;99.90;;;;;;5137336;27;20099;-76
2022/09/14 00:06:25;;;;;;;5.13;1.42;;;12.90;99.90;;;;;;5137206;27;20047;-76
2022/09/14 00:08:53;;;;;;;5.65;1.40;;;12.70;99.90;;;;;;5137216;27;20054;-76
2022/09/14 00:11:20;;;;;;;6.43;1.67;;;12.70;99.90;;;;;;5137192;27;20066;-76
2022/09/14 00:13:47;;;;;;;6.28;1.30;;;12.70;99.90;;;;;;5137078;27;20508;-75
2022/09/14 00:16:19;;;;;;;5.38;1.55;;;12.70;99.90;;;;;;5136888;27;20049;-77
2022/09/14 00:18:48;;;;;;;3.40;1.20;;;12.70;99.90;;;;;;5137062;27;20130;-76
2022/09/14 00:21:14;;;;;;;3.92;1.60;;;12.70;99.90;;;;;;5137054;27;20041;-76
2022/09/14 00:23:41;;;;;;;2.40;1.10;;;12.70;99.90;;;;;;5137020;27;20047;-76
2022/09/14 00:26:13;;;;;;;4.10;1.38;;;12.60;99.90;;;;;;5137230;27;20039;-76
2022/09/14 00:28:51;;;;;;;4.15;1.50;;;12.60;99.90;;;;;;5136953;27;20043;-75
2022/09/14 00:31:17;;;;;;;;;;;12.60;99.90;;;;;;5137189;27;20032;-77
2022/09/14 00:33:46;;;;;;;5.35;1.42;;;12.60;99.90;;;;;;5136764;27;19969;-76
2022/09/14 00:36:16;;;;;;;3.45;1.30;;;12.60;99.90;;;;;;5136748;27;20043;-76
2022/09/14 00:38:42;;;;;;;6.47;1.73;;;12.60;99.90;;;;;;5136684;27;20075;-77
2022/09/14 00:41:13;;;;;;;6.57;1.37;;;12.60;99.90;;;;;;5136649;27;20044;-75
2022/09/14 00:44:02;;;;;;;6.80;1.45;;;12.60;99.90;;;;;;5136517;27;20059;-76
2022/09/14 00:46:50;;;;;;;6.78;1.58;;;12.60;99.90;;;;;;5137153;27;20453;-76
2022/09/14 00:49:26;;;;;;;5.23;1.63;;;12.90;99.90;;;;;;5135857;27;20051;-75
2022/09/14 00:51:59;;;;;;;3.47;1.60;;;12.60;99.90;;;;;;5136319;27;20092;-75
2022/09/14 00:54:25;;;;;;;4.47;1.58;;;12.60;99.90;;;;;;5136533;27;20047;-76
2022/09/14 00:56:51;;;;;;;4.00;1.30;;;12.60;99.90;;;;;;5136288;27;20039;-76
2022/09/14 00:59:22;;;;;;;3.15;1.40;;;12.60;99.90;;;;;;5118122;27;20285;-77
2022/09/14 01:01:49;;;;;;;6.07;1.75;;;12.60;99.90;;;;;;5136291;27;20046;-76
2022/09/14 01:04:14;;;;;;;;;;;12.60;99.90;;;;;;5136563;27;20051;-76
2022/09/14 01:06:59;;;;;;;4.82;1.42;;;12.60;99.90;;;;;;5136062;27;20014;-77
2022/09/14 01:09:50;;;;;;;4.28;1.65;;;12.60;99.90;;;;;;5118218;27;20046;-75
2022/09/14 01:12:32;;;;;;;3.15;1.40;;;12.60;99.90;;;;;;5135363;27;20047;-75
2022/09/14 01:15:35;;;;;;;3.88;1.42;;;12.60;99.90;;;;;;5136008;27;20051;-75
2022/09/14 01:18:17;;;;;;;3.13;1.75;;;12.60;99.90;;;;;;5135829;27;20043;-77
2022/09/14 01:20:46;;;;;;;2.90;1.30;;;12.60;99.90;;;;;;5135878;27;20039;-75
2022/09/14 01:23:34;;;;;;;3.78;1.50;;;12.50;99.90;;;;;;5135774;27;20043;-76
2022/09/14 01:26:19;;;;;;;;;;;12.50;99.90;;;;;;5136191;27;20051;-77
2022/09/14 01:29:00;;;;;;;4.70;1.27;;;12.50;99.90;;;;;;5117503;27;19919;-77
2022/09/14 01:31:31;;;;;;;5.25;1.15;;;12.50;99.90;;;;;;5135509;27;20531;-77
2022/09/14 01:34:09;;;;;;;2.53;1.15;;;12.50;99.90;;;;;;5135538;27;20047;-76
2022/09/14 01:36:37;;;;;;;3.85;1.52;;;12.40;99.90;;;;;;5135582;27;20062;-76
2022/09/14 01:39:04;;;;;;;2.83;1.50;;;12.40;99.90;;;;;;5135824;27;20070;-76
2022/09/14 01:41:31;;;;;;;2.40;1.30;;;12.40;99.90;;;;;;5135219;27;20036;-77
2022/09/14 01:44:00;;;;;;;6.20;1.38;;;12.40;99.90;;;;;;5135382;27;20537;-76
2022/09/14 01:46:38;;;;;;;5.85;1.40;;;12.50;99.90;;;;;;5135283;27;20394;-76
2022/09/14 01:49:13;;;;;;;2.35;1.20;;;12.30;99.90;;;;;;5135779;27;20414;-76
2022/09/14 01:51:45;;;;;;;4.90;1.40;;;12.30;99.90;;;;;;5135230;27;20043;-76
2022/09/14 01:54:28;;;;;;;4.07;1.40;;;12.20;99.90;;;;;;5135036;27;20039;-76
2022/09/14 01:57:00;;;;;;;3.67;1.50;;;12.30;99.90;;;;;;5134938;27;20402;-75
2022/09/14 01:59:32;;;;;;;3.20;1.63;;;12.20;99.90;;;;;;5135182;27;20129;-75
2022/09/14 02:02:16;;;;;;;3.13;1.42;;;12.20;99.90;;;;;;5135143;27;20043;-75
2022/09/14 02:05:03;;;;;;;3.55;1.40;;;12.10;99.90;;;;;;5135418;27;20371;-77
2022/09/14 02:07:29;;;;;;;3.70;1.48;;;12.10;99.90;;;;;;5134913;27;20051;-76
2022/09/14 02:09:55;;;;;;;4.15;1.70;;;12.10;99.90;;;;;;5135014;27;20046;-75
2022/09/14 02:12:21;;;;;;;3.03;1.50;;;12.00;99.90;;;;;;5134946;27;20435;-77
2022/09/14 02:14:50;;;;;;;4.93;1.80;;;12.00;99.90;;;;;;5135192;27;20043;-77
2022/09/14 02:17:16;;;;;;;5.22;1.48;;;12.00;99.90;;;;;;5135121;27;20402;-76
2022/09/14 02:19:53;;;;;;;4.40;1.67;;;12.00;99.90;;;;;;5134782;27;20035;-75
2022/09/14 02:22:19;;;;;;;4.78;1.40;;;12.00;99.90;;;;;;5135254;27;20057;-76
2022/09/14 02:24:45;;;;;;;2.65;1.20;;;11.90;99.90;;;;;;5134708;27;20050;-76
2022/09/14 02:27:11;;;;;;;4.35;1.60;;;11.90;99.90;;;;;;5116640;27;20547;-77
2022/09/14 02:29:37;;;;;;;3.05;1.50;;;11.90;99.90;;;;;;5134796;27;20085;-76
2022/09/14 02:32:30;;;;;;;2.97;1.60;;;11.90;99.90;;;;;;5134613;27;20152;-77
2022/09/14 02:35:12;;;;;;;3.97;1.50;;;11.90;99.90;;;;;;5134692;28;20054;-76
2022/09/14 02:38:11;;;;;;;3.78;1.58;;;11.90;99.90;;;;;;5134655;28;20043;-77
2022/09/14 02:40:45;;;;;;;4.78;1.58;;;11.90;99.90;;;;;;5134740;28;20401;-76
2022/09/14 02:43:13;;;;;;;3.25;1.70;;;11.90;99.90;;;;;;5134383;27;20074;-75
2022/09/14 02:46:01;;;;;;;4.78;1.70;;;11.90;99.90;;;;;;5134221;28;20503;-75
2022/09/14 02:48:51;;;;;;;3.67;1.75;;;11.90;99.90;;;;;;5134431;28;20068;-76
2022/09/14 02:51:19;;;;;;;4.40;1.60;;;11.90;99.90;;;;;;5134405;28;20047;-76
2022/09/14 02:54:06;;;;;;;4.47;1.42;;;11.90;99.90;;;;;;5116588;28;20065;-76
2022/09/14 02:56:34;;;;;;;3.60;1.65;;;11.90;99.90;;;;;;5134567;28;20046;-76
2022/09/14 02:58:59;;;;;;;4.97;1.70;;;11.90;99.90;;;;;;5134400;28;20035;-75
2022/09/14 03:01:26;;;;;;;6.10;2.08;;;12.00;99.90;;;;;;5134473;28;20382;-76
2022/09/14 03:03:52;;;;;;;4.95;1.92;;;12.00;99.90;;;;;;5134306;28;20093;-76
2022/09/14 03:06:18;;;;;;;5.07;1.70;;;12.00;99.90;;;;;;5134865;28;20424;-77
2022/09/14 03:08:44;;;;;;;4.73;1.60;;;12.00;99.90;;;;;;5116427;28;20547;-76
2022/09/14 03:11:09;;;;;;;4.60;1.50;;;12.00;99.90;;;;;;5134270;28;20035;-76
2022/09/14 03:13:35;;;;;;;5.43;1.83;;;12.00;99.90;;;;;;5134583;28;20046;-76
2022/09/14 03:16:10;;;;;;;4.20;1.90;;;12.00;99.90;;;;;;5134320;28;20039;-75
2022/09/14 03:18:36;;;;;;;5.65;2.25;;;12.50;99.90;;;;;;5134133;28;20047;-75
2022/09/14 03:21:10;;;;;;;3.47;1.88;;;12.00;99.90;;;;;;5134309;28;20082;-76
2022/09/14 03:23:41;;;;;;;4.30;2.17;;;12.10;99.90;;;;;;5134511;28;20050;-75
2022/09/14 03:26:09;;;;;;;5.78;1.90;;;12.10;99.90;;;;;;5134208;28;20051;-76
2022/09/14 03:28:35;;;;;;;3.33;1.77;;;12.10;99.90;;;;;;5115747;28;20050;-76
2022/09/14 03:31:02;;;;;;;5.85;1.95;;;12.10;99.90;;;;;;5134063;28;20039;-76
2022/09/14 03:33:28;;;;;;;3.13;1.83;;;12.10;99.90;;;;;;5134175;27;20398;-77
2022/09/14 03:35:54;;;;;;;4.17;1.83;;;12.10;99.90;;;;;;5136789;27;20051;-76
2022/09/14 03:38:20;;;;;;;4.93;2.00;;;12.10;99.90;;;;;;5137822;27;20126;-76
2022/09/14 03:40:47;;;;;;;4.70;1.73;;;12.10;99.90;;;;;;5137681;27;20082;-76
2022/09/14 03:43:13;;;;;;;2.72;1.95;;;12.10;99.90;;;;;;5137970;27;20051;-76
2022/09/14 03:45:39;;;;;;;6.32;2.05;;;12.10;99.90;;;;;;5137670;27;20059;-76
2022/09/14 03:48:06;;;;;;;5.18;1.75;;;12.10;99.90;;;;;;5137414;27;20039;-76
2022/09/14 03:50:32;;;;;;;3.00;1.80;;;12.10;99.90;;;;;;5137758;27;20090;-75
2022/09/14 03:52:58;;;;;;;3.80;1.80;;;12.00;99.90;;;;;;5119350;27;20126;-76
2022/09/14 03:55:24;;;;;;;4.97;1.90;;;12.10;99.90;;;;;;5137572;27;20131;-76
2022/09/14 03:57:53;;;;;;;3.45;1.92;;;12.10;99.90;;;;;;5137638;27;20042;-76
2022/09/14 04:00:19;;;;;;;4.38;2.05;;;12.10;99.90;;;;;;5137421;27;20047;-75
2022/09/14 04:02:45;;;;;;;4.25;1.95;;;12.10;99.90;;;;;;5119036;27;20092;-75
2022/09/14 04:05:10;;;;;;;5.20;2.05;;;12.10;99.90;;;;;;5137833;27;20082;-75
2022/09/14 04:07:36;;;;;;;3.45;1.85;;;12.10;99.90;;;;;;5137323;27;20155;-76
2022/09/14 04:10:04;;;;;;;6.43;1.98;;;12.20;99.90;;;;;;5137173;27;20043;-77
2022/09/14 04:12:34;;;;;;;3.08;1.90;;;12.20;99.90;;;;;;5137103;27;20039;-75
2022/09/14 04:15:00;;;;;;;4.22;2.03;;;12.30;99.90;;;;;;5136864;27;20078;-76
2022/09/14 04:17:26;;;;;;;2.92;1.88;;;12.20;99.90;;;;;;5137631;27;20469;-75
2022/09/14 04:19:52;;;;;;;3.78;1.98;;;12.40;99.90;;;;;;5137054;27;20043;-77
2022/09/14 04:22:17;;;;;;;4.47;2.35;;;12.20;99.90;;;;;;5137032;27;20042;-75
2022/09/14 04:24:43;;;;;;;4.75;1.83;;;12.40;99.90;;;;;;5137242;27;20479;-76
2022/09/14 04:27:08;;;;;;;2.92;2.25;;;12.30;99.90;;;;;;5136996;27;20043;-76
2022/09/14 04:29:34;;;;;;;3.45;1.80;;;12.30;99.90;;;;;;5136880;27;20039;-76
2022/09/14 04:32:00;;;;;;;5.50;1.98;;;12.30;99.90;;;;;;5136739;27;20144;-76
2022/09/14 04:34:25;;;;;;;5.93;2.42;;;12.40;99.90;;;;;;5136814;27;20054;-76
2022/09/14 04:36:51;;;;;;;3.17;2.20;;;12.40;99.90;;;;;;5137070;27;20043;-76
2022/09/14 04:39:17;;;;;;;6.50;2.65;;;12.40;99.90;;;;;;5136534;27;20035;-76
2022/09/14 04:41:42;;;;;;;5.10;2.83;;;12.40;99.90;;;;;;5136497;27;20039;-76
2022/09/14 04:44:08;;;;;;;3.05;2.45;;;12.50;99.90;;;;;;5136660;27;20475;-75
2022/09/14 04:46:34;;;;;;;5.47;2.42;;;12.50;99.90;;;;;;5135336;27;20113;-76
2022/09/14 04:49:00;;;;;;;5.40;2.70;;;12.50;99.90;;;;;;5136480;27;20049;-75
2022/09/14 04:51:28;;;;;;;2.90;2.05;;;12.50;99.90;;;;;;5136867;27;20126;-76
2022/09/14 04:53:55;;;;;;;6.03;2.95;;;12.50;99.90;;;;;;5117993;27;20047;-76
2022/09/14 04:56:22;;;;;;;5.55;3.28;;;12.50;99.90;;;;;;5118236;27;20054;-75
2022/09/14 04:58:51;;;;;;;5.53;2.80;;;12.60;99.90;;;;;;5136138;27;20487;-75
2022/09/14 05:01:19;;;;;;;8.40;3.40;;;12.50;99.90;;;;;;5136489;27;20399;-76
2022/09/14 05:03:46;;;;;;;6.93;3.08;;;12.50;99.90;;;;;;5136132;27;20047;-75
2022/09/14 05:06:14;;;;;;;4.78;2.67;;;12.60;99.90;;;;;;5136472;27;20087;-76
2022/09/14 05:08:40;;;;;;;5.85;2.88;;;12.60;99.90;;;;;;5136176;27;20047;-77
2022/09/14 05:11:07;;;;;;;5.95;3.13;;;12.60;99.90;;;;;;5117801;27;20042;-75
2022/09/14 05:13:33;;;;;;;;;;;12.60;99.90;;;;;;5136426;27;20047;-75
2022/09/14 05:16:15;;;;;;;6.63;3.00;;;12.60;99.90;;;;;;5135987;27;19942;-76
2022/09/14 05:18:41;;;;;;;5.82;3.08;;;12.60;99.90;;;;;;5135818;27;20047;-77
2022/09/14 05:21:09;;;;;;;6.90;3.05;;;12.60;99.90;;;;;;5135907;27;20509;-76
2022/09/14 05:23:36;;;;;;;9.43;3.30;;;12.60;99.90;;;;;;5117622;27;20122;-76
2022/09/14 05:26:02;;;;;;;5.85;2.97;;;12.60;99.90;;;;;;5135772;27;20523;-75
2022/09/14 05:28:28;;;;;;;7.03;3.53;;;12.60;99.90;;;;;;5136196;27;20036;-76
2022/09/14 05:30:54;;;;;;;6.25;3.83;;;12.70;99.90;;;;;;5135964;27;20043;-76
2022/09/14 05:33:20;;;;;;;6.20;2.93;;;12.70;99.90;;;;;;5135647;27;20124;-76
2022/09/14 05:35:47;;;;;;;5.40;3.13;;;12.70;99.90;;;;;;5135423;27;20392;-77
2022/09/14 05:38:13;;;;;;;6.47;3.30;;;12.70;99.90;;;;;;5135545;27;20131;-76
2022/09/14 05:40:38;;;;;;;8.05;3.67;;;12.70;99.90;;;;;;5135230;27;20083;-75
2022/09/14 05:43:04;;;;;;;5.13;3.13;;;12.80;99.90;;;;;;5135195;27;20051;-76
2022/09/14 05:45:30;;;;;;;7.82;3.70;;;12.80;99.90;;;;;;5135405;27;20046;-76
2022/09/14 05:48:00;;;;;;;4.72;3.03;;;12.80;99.90;;;;;;5135450;27;20051;-75
2022/09/14 05:50:26;;;;;;;8.20;3.03;;;12.80;99.90;;;;;;5135273;27;20051;-75
2022/09/14 05:52:51;;;;;;;8.10;3.27;;;12.80;99.90;;;;;;5135314;27;20471;-76
2022/09/14 05:55:17;;;;;;;5.75;2.97;;;12.90;99.90;;;;;;5135125;27;20141;-76
2022/09/14 05:57:42;;;;;;;5.95;3.40;;;12.80;99.90;;;;;;5134860;27;20050;-75
2022/09/14 06:00:08;;;;;;;5.27;3.77;;;13.00;99.90;;;;;;5135161;27;20035;-76
2022/09/14 06:02:34;;;;;;;9.10;3.50;;;12.90;99.90;;;;;;5117082;27;20129;-76
2022/09/14 06:04:59;;;;;;;4.90;3.03;;;13.00;99.90;;;;;;5135007;27;20361;-75
2022/09/14 06:07:25;;;;;;;5.35;3.75;;;13.10;99.90;;;;;;5117233;27;20051;-77
2022/09/14 06:09:50;;;;;;;7.07;3.13;;;13.10;99.90;;;;;;5134640;27;20035;-76
2022/09/14 06:12:16;;;;;;;5.80;2.95;;;13.10;99.90;;;;;;5134863;27;20079;-75
2022/09/14 06:14:42;;;;;;;6.20;3.58;;;13.10;99.90;;;;;;5134925;27;20039;-76
2022/09/14 06:17:07;;;;;;;6.15;3.20;;;13.10;99.90;;;;;;5134839;27;20074;-76
2022/09/14 06:19:33;;;;;;;8.18;2.70;;;13.20;99.90;;;;;;5116734;28;20039;-75
2022/09/14 06:21:59;;;;;;;4.43;3.00;;;13.20;99.90;;;;;;5134821;27;20043;-76
2022/09/14 06:24:25;;;;;;;5.82;3.13;;;13.20;99.90;;;;;;5134797;27;20142;-76
2022/09/14 06:26:50;;;;;;;6.53;3.15;;;13.30;99.90;;;;;;5134808;27;20130;-76
2022/09/14 06:29:16;;;;;;;6.83;3.13;;;13.30;99.90;;;;;;5135143;27;20054;-75
2022/09/14 06:31:41;;;;;;;6.32;3.20;;;13.30;99.90;;;;;;5134679;27;20378;-76
2022/09/14 06:34:07;;;;;;;4.95;3.45;;;13.40;99.90;;;;;;5134619;27;20120;-75
2022/09/14 06:36:32;;;;;;;5.60;2.78;;;13.40;99.90;;;;;;5134889;28;20135;-76
2022/09/14 06:38:58;;;;;;;5.45;3.10;;;13.50;99.90;;;;;;5134359;28;20046;-75
2022/09/14 06:41:29;;;;;;;7.18;2.83;;;13.50;99.90;;;;;;5134531;28;20062;-75
2022/09/14 06:43:56;;;;;;;6.15;3.38;;;13.70;99.90;;;;;;5135007;28;20411;-76
2022/09/14 06:46:26;;;;;;;5.50;2.85;;;13.70;99.90;;;;;;5134827;28;20043;-76
2022/09/14 06:48:58;;;;;;;5.22;2.78;;;13.70;99.90;;;;;;5116291;28;20128;-76
2022/09/14 06:51:39;;;;;;;6.75;2.92;;;13.70;99.90;;;;;;5134388;28;20046;-75
2022/09/14 06:54:05;;;;;;;7.20;2.95;;;13.80;99.90;;;;;;5135051;28;20050;-77
2022/09/14 06:56:36;;;;;;;6.43;2.70;;;13.80;99.90;;;;;;5134457;28;20035;-76
2022/09/14 06:59:02;;;;;;;6.32;3.15;;;13.90;99.90;;;;;;5134474;28;20047;-75
2022/09/14 07:01:28;;;;;;;4.00;2.42;;;14.00;99.90;;;;;;5134472;28;20039;-77
2022/09/14 07:03:55;;;;;;;5.47;2.53;;;14.00;99.90;;;;;;5134383;28;20129;-76
2022/09/14 07:06:22;;;;;;;5.03;2.40;;;14.10;99.90;;;;;;5134389;28;20100;-75
2022/09/14 07:08:49;;;;;;;4.75;2.60;;;14.20;99.90;;;;;;5134772;27;20617;-76
2022/09/14 07:11:17;;;;;;;5.70;2.15;;;14.30;99.90;;;;;;5137773;27;20514;-77
2022/09/14 07:13:43;;;;;;;7.57;2.20;;;14.40;99.90;;;;;;5138411;27;20090;-75
2022/09/14 07:16:10;;;;;;;5.05;2.10;;;14.40;99.90;;;;;;5138301;27;20105;-76
2022/09/14 07:18:36;;;;;;;;;;;14.50;99.90;;;;;;5138727;27;20051;-76
2022/09/14 07:21:02;;;;;;;10.40;2.30;;;14.50;99.90;;;;;;5138228;27;20367;-76
2022/09/14 07:23:28;;;;;;;5.65;2.10;;;14.60;99.90;;;;;;5138191;27;20047;-75
2022/09/14 07:26:02;;;;;;;6.10;1.90;;;14.70;99.90;;;;;;5138212;27;20096;-76
2022/09/14 07:28:28;;;;;;;4.95;2.10;;;14.80;99.90;;;;;;5138027;27;20035;-76
2022/09/14 07:30:54;;;;;;;4.73;1.83;;;14.80;99.90;;;;;;5137980;27;20546;-75
2022/09/14 07:33:19;;;;;;;5.77;1.80;;;14.90;99.90;;;;;;5138032;27;20054;-76
2022/09/14 07:35:45;;;;;;;7.53;2.28;;;15.10;99.90;;;;;;5137612;27;20049;-75
2022/09/14 07:38:10;;;;;;;5.50;1.83;;;15.10;99.90;;;;;;5137899;27;20086;-75
2022/09/14 07:40:36;;;;;;;5.15;1.75;;;15.20;99.90;;;;;;5137979;27;20047;-77
2022/09/14 07:43:01;;;;;;;6.03;1.80;;;15.40;99.90;;;;;;5137789;27;20054;-76
2022/09/14 07:45:27;;;;;;;4.50;1.57;;;15.50;99.90;;;;;;5137603;27;20482;-76
2022/09/14 07:47:54;;;;;;;7.43;1.90;;;15.60;99.90;;;;;;5137679;27;20045;-76
2022/09/14 07:50:20;;;;;;;4.90;1.60;;;15.70;99.90;;;;;;5137608;27;20050;-76
2022/09/14 07:52:50;;;;;;;3.93;1.50;;;15.90;99.90;;;;;;5138092;27;20038;-76
2022/09/14 07:55:16;;;;;;;6.25;1.60;;;15.90;99.90;;;;;;5137544;27;20043;-76
2022/09/14 07:57:41;;;;;;;4.90;1.33;;;16.00;99.90;;;;;;5137562;27;20386;-77
2022/09/14 08:00:09;;;;;;;4.73;1.60;;;16.20;99.90;;;;;;5137519;27;20596;-75
2022/09/14 08:02:35;;;;;;;6.32;1.42;;;16.20;99.90;;;;;;5137421;27;20089;-76
2022/09/14 08:05:00;;;;;;;7.53;1.40;;;16.30;99.90;;;;;;5137319;27;20043;-76
2022/09/14 08:07:26;;;;;;;8.27;1.60;;;16.40;99.90;;;;;;5137803;27;20072;-76
2022/09/14 08:09:51;;;;;;;4.43;1.40;;;16.50;99.90;;;;;;5137352;27;20066;-76
2022/09/14 08:12:17;;;;;;;5.13;1.40;;;16.70;99.90;;;;;;5137155;27;20356;-76
2022/09/14 08:14:42;;;;;;;5.53;1.17;;;16.80;99.90;;;;;;5137077;27;20050;-75
2022/09/14 08:17:09;;;;;;;4.30;1.13;;;16.90;99.90;;;;;;5137252;27;20046;-76
2022/09/14 08:19:36;;;;;;;4.43;1.08;;;17.10;99.90;;;;;;5137035;27;20122;-75
2022/09/14 08:22:03;;;;;;;3.10;0.93;;;17.10;99.90;;;;;;5137572;27;20039;-77
2022/09/14 08:24:29;;;;;;;3.67;1.00;;;17.20;99.90;;;;;;5137300;27;20051;-76
2022/09/14 08:26:55;;;;;;;4.68;1.10;;;17.30;99.90;;;;;;5136951;27;20484;-75
2022/09/14 08:29:21;;;;;;;3.60;0.87;;;17.40;99.90;;;;;;5136906;27;20138;-75
2022/09/14 08:31:47;;;;;;;4.23;0.97;;;17.50;99.90;;;;;;5136775;27;20069;-77
2022/09/14 08:34:14;;;;;;;3.72;1.23;;;17.60;99.90;;;;;;5136810;27;20094;-77
2022/09/14 08:36:41;;;;;;;5.05;1.00;;;17.70;99.90;;;;;;5137239;27;20047;-76
2022/09/14 08:39:09;;;;;;;;;;;17.70;99.90;;;;;;5137151;27;20084;-76
2022/09/14 08:41:47;;;;;;;4.65;0.93;;;17.70;99.90;;;;;;5136333;27;20366;-76
2022/09/14 08:44:15;;;;;;;3.55;1.00;;;17.80;99.90;;;;;;5136825;27;20092;-76
2022/09/14 08:46:46;;;;;;;3.08;0.85;;;17.80;99.90;;;;;;5118369;27;20043;-76
2022/09/14 08:49:46;;;;;;;3.42;0.82;;;17.90;99.90;;;;;;5136642;27;20054;-76
2022/09/14 08:52:35;;;;;;;6.40;1.48;;;17.90;99.90;;;;;;5136151;27;20531;-76
2022/09/14 08:55:18;;;;;;;4.88;1.20;;;17.90;99.90;;;;;;5136437;27;20088;-76
2022/09/14 08:57:59;;;;;;;6.53;0.82;;;17.90;99.90;;;;;;5136817;27;20390;-75
2022/09/14 09:00:38;;;;;;;2.03;0.68;;;17.90;99.90;;;;;;5136643;27;20111;-76
2022/09/14 09:03:19;;;;;;;4.22;1.23;;;17.90;99.90;;;;;;5136446;27;20446;-76
2022/09/14 09:06:12;;;;;;;3.78;0.90;;;17.90;99.90;;;;;;5136120;27;20070;-77
2022/09/14 09:08:43;;;;;;;7.07;1.10;;;18.10;99.90;;;;;;5083921;27;20078;-77
2022/09/14 09:11:17;;;;;;;3.55;0.80;;;18.00;99.90;;;;;;5136209;27;20043;-77
2022/09/14 09:13:44;;;;;;;2.10;0.75;;;18.20;99.90;;;;;;5136071;27;20091;-77
2022/09/14 09:16:11;;;;;;;4.55;1.08;;;18.30;99.90;;;;;;5135878;27;20050;-76
2022/09/14 09:19:00;;;;;;;3.53;0.80;;;18.50;99.90;;;;;;5135974;27;20043;-76
2022/09/14 09:21:39;;;;;;;3.25;1.20;;;18.60;99.90;;;;;;5136104;27;20047;-76
2022/09/14 09:24:33;;;;;;;3.15;1.10;;;18.60;99.90;;;;;;5135721;27;20042;-76
2022/09/14 09:26:59;;;;;;;5.50;0.90;;;18.80;99.90;;;;;;5136203;27;20101;-75
2022/09/14 09:29:25;;;;;;;2.97;0.90;;;18.80;99.90;;;;;;5135672;27;20101;-76
2022/09/14 09:31:53;;;;;;;3.47;0.90;;;18.90;99.90;;;;;;5134816;27;20402;-77
2022/09/14 09:34:28;;;;;;;5.10;1.10;;;19.00;99.90;;;;;;5135536;27;20043;-77
2022/09/14 09:36:54;;;;;;;3.00;0.77;;;19.10;99.90;;;;;;5117179;27;20127;-76
2022/09/14 09:39:22;;;;;;;2.35;0.85;;;19.20;99.90;;;;;;5135597;27;20039;-76
2022/09/14 09:41:56;;;;;;;4.43;0.90;;;19.30;99.90;;;;;;5135286;27;20115;-76
2022/09/14 09:44:22;;;;;;;5.13;1.10;;;19.40;99.90;;;;;;5135407;27;20043;-76
2022/09/14 09:46:52;;;;;;;3.43;0.97;;;19.50;99.90;;;;;;5135418;27;20463;-76
2022/09/14 09:49:36;;;;;;;2.53;0.70;;;19.50;99.90;;;;;;5135293;27;20483;-76
2022/09/14 09:52:07;;;;;;;4.90;0.82;;;19.40;99.90;;;;;;5135308;27;20043;-77
2022/09/14 09:54:33;;;;;;;2.90;1.00;;;19.30;99.90;;;;;;5135250;27;20050;-76
2022/09/14 09:57:06;;;;;;;3.63;0.80;;;19.30;99.90;;;;;;5135346;27;20047;-76
2022/09/14 09:59:34;;;;;;;2.67;0.88;;;19.30;99.90;;;;;;5134923;27;20043;-77
2022/09/14 10:02:24;;;;;;;3.80;1.00;;;19.40;99.90;;;;;;5135166;27;20047;-77
2022/09/14 10:05:01;;;;;;;2.55;0.80;;;19.30;99.90;;;;;;5135089;27;20039;-76
2022/09/14 10:07:29;;;;;;;4.03;1.00;;;19.30;99.90;;;;;;5135252;27;20051;-77
2022/09/14 10:10:06;;;;;;;6.15;1.50;;;19.20;99.90;;;;;;5135018;27;20179;-76
2022/09/14 10:12:33;;;;;;;2.97;0.80;;;19.20;99.90;;;;;;5134932;27;20046;-76
2022/09/14 10:15:15;;;;;;;2.78;0.60;;;19.10;99.90;;;;;;5134938;27;20043;-76
2022/09/14 10:18:08;;;;;;;4.35;0.85;;;19.10;99.90;;;;;;5134938;27;20040;-77
2022/09/14 10:20:37;;;;;;;4.10;0.90;;;19.00;99.90;;;;;;5134957;27;20043;-76
2022/09/14 10:23:18;;;;;;;3.78;0.90;;;19.00;99.90;;;;;;5134817;27;20164;-77
2022/09/14 10:25:52;;;;;;;4.15;0.80;;;19.00;99.90;;;;;;5134785;27;20058;-77
2022/09/14 10:28:32;;;;;;;3.40;0.73;;;19.00;99.90;;;;;;5134735;27;20043;-76
2022/09/14 10:31:00;;;;;;;4.47;0.80;;;19.00;99.90;;;;;;5134642;27;20050;-77
2022/09/14 10:33:27;;;;;;;4.07;0.95;;;19.10;99.90;;;;;;5134638;27;20039;-76
2022/09/14 10:36:04;;;;;;;3.80;0.90;;;19.10;99.90;;;;;;5135159;27;20062;-76
2022/09/14 10:38:40;;;;;;;;;;;19.20;99.90;;;;;;5135178;28;20047;-76
2022/09/14 10:41:09;;;;;;;3.67;1.13;;;19.10;99.90;;;;;;5134462;28;19919;-76
2022/09/14 10:43:46;;;;;;;5.80;0.98;;;19.20;99.90;;;;;;5135646;27;20067;-77
2022/09/14 10:46:23;;;;;;;5.13;1.00;;;19.20;99.90;;;;;;5139483;27;20092;-77
2022/09/14 10:49:03;;;;;;;2.42;0.82;;;19.30;99.90;;;;;;5138906;27;20081;-76
2022/09/14 10:51:53;;;;;;;4.28;0.90;;;19.40;99.90;;;;;;5138688;27;20039;-77
2022/09/14 10:54:55;;;;;;;2.63;0.90;;;19.50;99.90;;;;;;5138762;27;20039;-75
2022/09/14 10:57:51;;;;;;;2.95;0.93;;;19.70;99.90;;;;;;5139116;27;20072;-76
2022/09/14 11:00:19;;;;;;;2.35;0.75;;;19.90;99.90;;;;;;5138483;27;20429;-76
2022/09/14 11:03:07;;;;;;;3.05;0.93;;;20.10;99.90;;;;;;5138548;27;20092;-77
2022/09/14 11:05:46;;;;;;;3.38;1.00;;;20.20;99.90;;;;;;5139024;27;20402;-77
2022/09/14 11:08:32;;;;;;;2.50;0.90;;;20.30;99.90;;;;;;5138709;27;20043;-76
2022/09/14 11:11:30;;;;;;;3.65;1.00;;;20.30;99.90;;;;;;5138349;27;20039;-76
2022/09/14 11:14:19;;;;;;;3.47;0.95;;;20.20;99.90;;;;;;5120139;27;20406;-75
2022/09/14 11:16:59;;;;;;;3.47;0.90;;;20.30;99.90;;;;;;5138853;27;20035;-76
2022/09/14 11:19:53;;;;;;;2.88;0.95;;;20.30;99.90;;;;;;5138308;27;20051;-76
2022/09/14 11:22:45;;;;;;;3.00;1.13;;;20.30;99.90;;;;;;5138417;27;20376;-76
2022/09/14 11:25:26;;;;;;;3.08;1.00;;;20.30;99.90;;;;;;5124011;27;20108;-76
2022/09/14 11:28:08;;;;;;;3.80;0.90;;;20.30;99.90;;;;;;5138103;27;20547;-74
2022/09/14 11:30:43;;;;;;;3.20;1.05;;;20.30;99.90;;;;;;5138376;27;20046;-75
2022/09/14 11:33:20;;;;;;;3.13;1.00;;;20.50;99.90;;;;;;5138149;27;20114;-77
2022/09/14 11:35:49;;;;;;;;;;;20.50;99.90;;;;;;5138399;27;20044;-75
2022/09/14 11:38:19;;;;;;;4.90;0.80;;;20.50;99.90;;;;;;5137748;27;20009;-76
2022/09/14 11:40:45;;;;;;;3.92;0.93;;;20.50;99.90;;;;;;5137842;27;20405;-75
2022/09/14 11:43:28;;;;;;;1.97;0.60;;;20.50;99.90;;;;;;5137857;27;20129;-77
2022/09/14 11:46:04;;;;;;;2.70;0.93;;;20.50;99.90;;;;;;5137766;27;20051;-75
2022/09/14 11:48:42;;;;;;;3.90;0.73;;;20.60;99.90;;;;;;5137867;27;20101;-76
2022/09/14 11:51:12;;;;;;;2.75;0.70;;;20.70;99.90;;;;;;5137632;27;20039;-77
2022/09/14 11:53:40;;;;;;;3.17;0.80;;;20.80;99.90;;;;;;5119595;27;20398;-76
2022/09/14 11:56:25;;;;;;;6.82;0.90;;;20.90;99.90;;;;;;5136881;27;20126;-77
2022/09/14 11:58:53;;;;;;;3.80;0.85;;;21.10;99.90;;;;;;5137604;27;20085;-76
2022/09/14 12:01:28;;;;;;;2.70;0.95;;;21.40;99.90;;;;;;5137415;27;20140;-75
2022/09/14 12:03:59;;;;;;;4.05;0.88;;;21.60;99.90;;;;;;5119084;27;20494;-77
2022/09/14 12:06:42;;;;;;;2.45;0.80;;;21.70;99.90;;;;;;5137471;27;20375;-75
2022/09/14 12:09:20;;;;;;;3.78;0.90;;;22.10;99.90;;;;;;5137391;27;20053;-76
2022/09/14 12:11:52;;;;;;;3.90;1.05;;;22.40;99.90;;;;;;5137091;27;20074;-77
2022/09/14 12:14:27;;;;;;;2.05;0.80;;;22.50;99.90;;;;;;5137240;27;20054;-76
2022/09/14 12:17:12;;;;;;;2.55;0.82;;;22.70;99.90;;;;;;5137283;27;20049;-77
2022/09/14 12:19:38;;;;;;;4.53;0.98;;;22.90;99.90;;;;;;5137236;27;20051;-77
2022/09/14 12:22:28;;;;;;;3.23;0.97;;;23.00;99.90;;;;;;5136990;27;20479;-77
2022/09/14 12:25:03;;;;;;;4.75;0.88;;;23.10;99.90;;;;;;5136979;27;20127;-77
2022/09/14 12:27:31;;;;;;;3.97;0.82;;;23.20;99.90;;;;;;5136690;27;20055;-76
2022/09/14 12:29:57;;;;;;;2.80;0.70;;;23.20;99.90;;;;;;5137059;27;20126;-77
2022/09/14 12:32:27;;;;;;;2.60;1.00;;;23.20;99.90;;;;;;5118443;27;20483;-76
2022/09/14 12:35:30;;;;;;;3.70;0.98;;;23.10;99.90;;;;;;5136926;27;20398;-77
2022/09/14 12:37:56;;;;;;;3.90;1.00;;;22.80;99.90;;;;;;5136771;27;20047;-76
2022/09/14 12:40:33;;;;;;;5.40;1.07;;;22.60;99.90;;;;;;5136738;27;20039;-75
2022/09/14 12:43:34;;;;;;;3.60;0.95;;;22.60;99.90;;;;;;5136365;27;20096;-77
2022/09/14 12:46:19;;;;;;;3.80;0.90;;;22.50;99.90;;;;;;5118251;27;20134;-76
2022/09/14 12:48:47;;;;;;;2.80;0.88;;;22.50;99.90;;;;;;5136707;27;20043;-77
2022/09/14 12:51:23;;;;;;;4.97;1.17;;;22.50;99.90;;;;;;5136463;27;20391;-77
2022/09/14 12:54:02;;;;;;;3.08;0.75;;;22.50;99.90;;;;;;5136260;27;20478;-76
2022/09/14 12:56:39;;;;;;;2.20;0.80;;;22.50;99.90;;;;;;5136815;27;20054;-77
2022/09/14 12:59:20;;;;;;;2.05;0.85;;;22.40;99.90;;;;;;5136313;27;20043;-75
2022/09/14 13:01:49;;;;;;;2.30;1.00;;;22.50;99.90;;;;;;5136315;27;20046;-75
2022/09/14 13:04:27;;;;;;;3.80;1.00;;;22.40;99.90;;;;;;5136017;27;20050;-76
2022/09/14 13:06:55;;;;;;;3.28;0.85;;;22.40;99.90;;;;;;5118823;28;20054;-77
2022/09/14 13:09:29;;;;;;;3.22;0.90;;;22.30;99.90;;;;;;5117773;27;20403;-76
2022/09/14 13:12:05;;;;;;;2.80;0.77;;;22.20;99.90;;;;;;5136012;27;20046;-76